sensor_id;sensor_type;location;lat;lon;timestamp;P1;P2;P0
31330;PMS5003;34067;39.548;-76.088;2023-09-19T00:01:26;12;12;
31330;PMS5003;34067;39.548;-76.088;2023-09-19T00:03:54;8;7;
31330;PMS5003;34067;39.548;-76.088;2023-09-19T00:06:22;13;12;
31330;PMS5003;34067;39.548;-76.088;2023-09-19T00:08:50;12;11;
31330;PMS5003;34067;39.548;-76.088;2023-09-19T00:11:18;11;11;
31330;PMS5003;34067;39.548;-76.088;2023-09-19T00:13:47;11;10;
31330;PMS5003;34067;39.548;-76.088;2023-09-19T00:16:15;11;10;
31330;PMS5003;34067;39.548;-76.088;2023-09-19T00:18:43;11;11;
31330;PMS5003;34067;39.548;-76.088;2023-09-19T00:21:10;12;12;
31330;PMS5003;34067;39.548;-76.088;2023-09-19T00:23:38;10;10;
31330;PMS5003;34067;39.548;-76.088;2023-09-19T00:26:06;11;10;
31330;PMS5003;34067;39.548;-76.088;2023-09-19T00:28:34;11;11;
31330;PMS5003;34067;39.548;-76.088;2023-09-19T00:31:02;10;10;
31330;PMS5003;34067;39.548;-76.088;2023-09-19T00:33:30;14;13;
31330;PMS5003;34067;39.548;-76.088;2023-09-19T00:35:58;16;12;
31330;PMS5003;34067;39.548;-76.088;2023-09-19T00:38:26;11;11;
31330;PMS5003;34067;39.548;-76.088;2023-09-19T00:40:54;11;11;
31330;PMS5003;34067;39.548;-76.088;2023-09-19T00:43:22;13;11;
31330;PMS5003;34067;39.548;-76.088;2023-09-19T00:45:50;12;11;
31330;PMS5003;34067;39.548;-76.088;2023-09-19T00:48:19;10;10;
31330;PMS5003;34067;39.548;-76.088;2023-09-19T00:50:48;13;12;
31330;PMS5003;34067;39.548;-76.088;2023-09-19T00:53:18;14;11;
31330;PMS5003;34067;39.548;-76.088;2023-09-19T00:55:47;10;10;
31330;PMS5003;34067;39.548;-76.088;2023-09-19T00:58:16;12;12;
31330;PMS5003;34067;39.548;-76.088;2023-09-19T01:00:44;11;10;
31330;PMS5003;34067;39.548;-76.088;2023-09-19T01:03:14;10;10;
31330;PMS5003;34067;39.548;-76.088;2023-09-19T01:05:42;12;12;
31330;PMS5003;34067;39.548;-76.088;2023-09-19T01:08:10;13;11;
31330;PMS5003;34067;39.548;-76.088;2023-09-19T01:10:39;13;12;
31330;PMS5003;34067;39.548;-76.088;2023-09-19T01:13:15;13;12;
31330;PMS5003;34067;39.548;-76.088;2023-09-19T01:15:54;13;12;
31330;PMS5003;34067;39.548;-76.088;2023-09-19T01:18:32;10;10;
31330;PMS5003;34067;39.548;-76.088;2023-09-19T01:21:08;12;12;
31330;PMS5003;34067;39.548;-76.088;2023-09-19T01:23:49;12;12;
31330;PMS5003;34067;39.548;-76.088;2023-09-19T01:26:51;11;11;
31330;PMS5003;34067;39.548;-76.088;2023-09-19T01:29:34;13;13;
31330;PMS5003;34067;39.548;-76.088;2023-09-19T01:32:06;8;8;
31330;PMS5003;34067;39.548;-76.088;2023-09-19T01:34:44;11;11;
31330;PMS5003;34067;39.548;-76.088;2023-09-19T01:37:13;10;10;
31330;PMS5003;34067;39.548;-76.088;2023-09-19T01:39:41;10;9;
31330;PMS5003;34067;39.548;-76.088;2023-09-19T01:42:10;13;10;
31330;PMS5003;34067;39.548;-76.088;2023-09-19T01:44:49;11;10;
31330;PMS5003;34067;39.548;-76.088;2023-09-19T01:47:26;11;10;
31330;PMS5003;34067;39.548;-76.088;2023-09-19T01:50:01;13;12;
31330;PMS5003;34067;39.548;-76.088;2023-09-19T01:52:42;8;8;
31330;PMS5003;34067;39.548;-76.088;2023-09-19T01:55:15;10;10;
31330;PMS5003;34067;39.548;-76.088;2023-09-19T01:57:49;10;9;
31330;PMS5003;34067;39.548;-76.088;2023-09-19T02:00:25;10;10;
31330;PMS5003;34067;39.548;-76.088;2023-09-19T02:02:54;9;8;
31330;PMS5003;34067;39.548;-76.088;2023-09-19T02:05:25;13;10;
31330;PMS5003;34067;39.548;-76.088;2023-09-19T02:07:53;8;8;
31330;PMS5003;34067;39.548;-76.088;2023-09-19T02:10:22;12;10;
31330;PMS5003;34067;39.548;-76.088;2023-09-19T02:12:49;9;9;
31330;PMS5003;34067;39.548;-76.088;2023-09-19T02:15:17;11;11;
31330;PMS5003;34067;39.548;-76.088;2023-09-19T02:17:45;10;9;
31330;PMS5003;34067;39.548;-76.088;2023-09-19T02:20:13;10;9;
31330;PMS5003;34067;39.548;-76.088;2023-09-19T02:22:41;11;10;
31330;PMS5003;34067;39.548;-76.088;2023-09-19T02:25:09;10;10;
31330;PMS5003;34067;39.548;-76.088;2023-09-19T02:27:37;8;8;
31330;PMS5003;34067;39.548;-76.088;2023-09-19T02:30:05;10;10;
31330;PMS5003;34067;39.548;-76.088;2023-09-19T02:32:33;10;10;
31330;PMS5003;34067;39.548;-76.088;2023-09-19T02:35:01;12;11;
31330;PMS5003;34067;39.548;-76.088;2023-09-19T02:37:30;9;9;
31330;PMS5003;34067;39.548;-76.088;2023-09-19T02:39:58;12;12;
31330;PMS5003;34067;39.548;-76.088;2023-09-19T02:42:26;13;11;
31330;PMS5003;34067;39.548;-76.088;2023-09-19T02:44:54;15;14;
31330;PMS5003;34067;39.548;-76.088;2023-09-19T02:47:22;8;8;
31330;PMS5003;34067;39.548;-76.088;2023-09-19T02:49:49;11;9;
31330;PMS5003;34067;39.548;-76.088;2023-09-19T02:52:18;10;9;
31330;PMS5003;34067;39.548;-76.088;2023-09-19T02:54:45;11;9;
31330;PMS5003;34067;39.548;-76.088;2023-09-19T02:57:13;10;10;
31330;PMS5003;34067;39.548;-76.088;2023-09-19T02:59:41;11;10;
31330;PMS5003;34067;39.548;-76.088;2023-09-19T03:02:09;7;7;
31330;PMS5003;34067;39.548;-76.088;2023-09-19T03:04:37;10;10;
31330;PMS5003;34067;39.548;-76.088;2023-09-19T03:07:05;12;10;
31330;PMS5003;34067;39.548;-76.088;2023-09-19T03:09:33;10;9;
31330;PMS5003;34067;39.548;-76.088;2023-09-19T03:12:01;11;9;
31330;PMS5003;34067;39.548;-76.088;2023-09-19T03:14:29;10;9;
31330;PMS5003;34067;39.548;-76.088;2023-09-19T03:16:56;12;11;
31330;PMS5003;34067;39.548;-76.088;2023-09-19T03:19:24;10;10;
31330;PMS5003;34067;39.548;-76.088;2023-09-19T03:21:52;9;9;
31330;PMS5003;34067;39.548;-76.088;2023-09-19T03:24:20;11;10;
31330;PMS5003;34067;39.548;-76.088;2023-09-19T03:26:48;13;10;
31330;PMS5003;34067;39.548;-76.088;2023-09-19T03:29:16;11;9;
31330;PMS5003;34067;39.548;-76.088;2023-09-19T03:31:44;11;9;
31330;PMS5003;34067;39.548;-76.088;2023-09-19T03:34:12;11;10;
31330;PMS5003;34067;39.548;-76.088;2023-09-19T03:36:40;11;11;
31330;PMS5003;34067;39.548;-76.088;2023-09-19T03:39:08;12;11;
31330;PMS5003;34067;39.548;-76.088;2023-09-19T03:41:36;10;9;
31330;PMS5003;34067;39.548;-76.088;2023-09-19T03:44:04;9;9;
31330;PMS5003;34067;39.548;-76.088;2023-09-19T03:46:31;7;7;
31330;PMS5003;34067;39.548;-76.088;2023-09-19T03:48:59;12;10;
31330;PMS5003;34067;39.548;-76.088;2023-09-19T03:51:27;12;11;
31330;PMS5003;34067;39.548;-76.088;2023-09-19T03:53:56;9;9;
31330;PMS5003;34067;39.548;-76.088;2023-09-19T03:56:23;11;10;
31330;PMS5003;34067;39.548;-76.088;2023-09-19T03:58:51;10;10;
31330;PMS5003;34067;39.548;-76.088;2023-09-19T04:01:19;10;9;
31330;PMS5003;34067;39.548;-76.088;2023-09-19T04:03:47;12;11;
31330;PMS5003;34067;39.548;-76.088;2023-09-19T04:06:15;13;12;
31330;PMS5003;34067;39.548;-76.088;2023-09-19T04:08:44;10;10;
31330;PMS5003;34067;39.548;-76.088;2023-09-19T04:11:12;13;11;
31330;PMS5003;34067;39.548;-76.088;2023-09-19T04:13:39;11;11;
31330;PMS5003;34067;39.548;-76.088;2023-09-19T04:16:07;11;11;
31330;PMS5003;34067;39.548;-76.088;2023-09-19T04:18:35;11;11;
31330;PMS5003;34067;39.548;-76.088;2023-09-19T04:21:03;14;14;
31330;PMS5003;34067;39.548;-76.088;2023-09-19T04:23:31;13;11;
31330;PMS5003;34067;39.548;-76.088;2023-09-19T04:25:59;13;13;
31330;PMS5003;34067;39.548;-76.088;2023-09-19T04:28:26;17;15;
31330;PMS5003;34067;39.548;-76.088;2023-09-19T04:30:54;12;12;
31330;PMS5003;34067;39.548;-76.088;2023-09-19T04:33:22;12;12;
31330;PMS5003;34067;39.548;-76.088;2023-09-19T04:35:51;12;12;
31330;PMS5003;34067;39.548;-76.088;2023-09-19T04:38:20;14;14;
31330;PMS5003;34067;39.548;-76.088;2023-09-19T04:40:48;25;25;
31330;PMS5003;34067;39.548;-76.088;2023-09-19T04:43:15;27;26;
31330;PMS5003;34067;39.548;-76.088;2023-09-19T04:45:43;17;17;
31330;PMS5003;34067;39.548;-76.088;2023-09-19T04:48:11;17;17;
31330;PMS5003;34067;39.548;-76.088;2023-09-19T04:50:38;13;13;
31330;PMS5003;34067;39.548;-76.088;2023-09-19T04:53:06;18;17;
31330;PMS5003;34067;39.548;-76.088;2023-09-19T04:55:34;14;14;
31330;PMS5003;34067;39.548;-76.088;2023-09-19T04:58:02;14;13;
31330;PMS5003;34067;39.548;-76.088;2023-09-19T05:03:10;24;24;
31330;PMS5003;34067;39.548;-76.088;2023-09-19T05:05:37;20;20;
31330;PMS5003;34067;39.548;-76.088;2023-09-19T05:08:06;16;16;
31330;PMS5003;34067;39.548;-76.088;2023-09-19T05:10:34;19;18;
31330;PMS5003;34067;39.548;-76.088;2023-09-19T05:13:02;25;24;
31330;PMS5003;34067;39.548;-76.088;2023-09-19T05:15:30;11;9;
31330;PMS5003;34067;39.548;-76.088;2023-09-19T05:17:57;15;14;
31330;PMS5003;34067;39.548;-76.088;2023-09-19T05:20:26;12;11;
31330;PMS5003;34067;39.548;-76.088;2023-09-19T05:22:57;12;11;
31330;PMS5003;34067;39.548;-76.088;2023-09-19T05:25:26;14;14;
31330;PMS5003;34067;39.548;-76.088;2023-09-19T05:27:54;9;9;
31330;PMS5003;34067;39.548;-76.088;2023-09-19T05:30:23;13;12;
31330;PMS5003;34067;39.548;-76.088;2023-09-19T05:32:51;15;15;
31330;PMS5003;34067;39.548;-76.088;2023-09-19T05:35:19;10;9;
31330;PMS5003;34067;39.548;-76.088;2023-09-19T05:37:47;11;10;
31330;PMS5003;34067;39.548;-76.088;2023-09-19T05:40:17;11;11;
31330;PMS5003;34067;39.548;-76.088;2023-09-19T05:42:45;11;11;
31330;PMS5003;34067;39.548;-76.088;2023-09-19T05:45:13;11;11;
31330;PMS5003;34067;39.548;-76.088;2023-09-19T05:47:41;22;21;
31330;PMS5003;34067;39.548;-76.088;2023-09-19T05:50:09;27;27;
31330;PMS5003;34067;39.548;-76.088;2023-09-19T05:52:37;9;9;
31330;PMS5003;34067;39.548;-76.088;2023-09-19T05:55:05;17;16;
31330;PMS5003;34067;39.548;-76.088;2023-09-19T05:57:34;10;9;
31330;PMS5003;34067;39.548;-76.088;2023-09-19T06:00:03;9;9;
31330;PMS5003;34067;39.548;-76.088;2023-09-19T06:02:31;13;13;
31330;PMS5003;34067;39.548;-76.088;2023-09-19T06:04:59;9;9;
31330;PMS5003;34067;39.548;-76.088;2023-09-19T06:07:27;11;10;
31330;PMS5003;34067;39.548;-76.088;2023-09-19T06:09:55;9;9;
31330;PMS5003;34067;39.548;-76.088;2023-09-19T06:12:24;13;11;
31330;PMS5003;34067;39.548;-76.088;2023-09-19T06:14:52;9;8;
31330;PMS5003;34067;39.548;-76.088;2023-09-19T06:17:20;11;10;
31330;PMS5003;34067;39.548;-76.088;2023-09-19T06:19:48;9;9;
31330;PMS5003;34067;39.548;-76.088;2023-09-19T06:22:16;8;8;
31330;PMS5003;34067;39.548;-76.088;2023-09-19T06:24:44;8;8;
31330;PMS5003;34067;39.548;-76.088;2023-09-19T06:27:12;9;9;
31330;PMS5003;34067;39.548;-76.088;2023-09-19T06:29:40;10;9;
31330;PMS5003;34067;39.548;-76.088;2023-09-19T06:32:08;9;9;
31330;PMS5003;34067;39.548;-76.088;2023-09-19T06:34:36;6;6;
31330;PMS5003;34067;39.548;-76.088;2023-09-19T06:37:04;7;7;
31330;PMS5003;34067;39.548;-76.088;2023-09-19T06:39:32;7;7;
31330;PMS5003;34067;39.548;-76.088;2023-09-19T06:42:00;11;9;
31330;PMS5003;34067;39.548;-76.088;2023-09-19T06:44:28;9;7;
31330;PMS5003;34067;39.548;-76.088;2023-09-19T06:46:56;8;6;
31330;PMS5003;34067;39.548;-76.088;2023-09-19T06:49:24;12;12;
31330;PMS5003;34067;39.548;-76.088;2023-09-19T06:51:54;11;10;
31330;PMS5003;34067;39.548;-76.088;2023-09-19T06:54:22;9;9;
31330;PMS5003;34067;39.548;-76.088;2023-09-19T06:56:50;10;10;
31330;PMS5003;34067;39.548;-76.088;2023-09-19T06:59:18;9;9;
31330;PMS5003;34067;39.548;-76.088;2023-09-19T07:01:46;10;10;
31330;PMS5003;34067;39.548;-76.088;2023-09-19T07:04:14;11;11;
31330;PMS5003;34067;39.548;-76.088;2023-09-19T07:06:42;12;10;
31330;PMS5003;34067;39.548;-76.088;2023-09-19T07:09:10;9;9;
31330;PMS5003;34067;39.548;-76.088;2023-09-19T07:11:38;13;12;
31330;PMS5003;34067;39.548;-76.088;2023-09-19T07:14:06;8;8;
31330;PMS5003;34067;39.548;-76.088;2023-09-19T07:16:34;8;8;
31330;PMS5003;34067;39.548;-76.088;2023-09-19T07:19:02;13;12;
31330;PMS5003;34067;39.548;-76.088;2023-09-19T07:21:31;14;12;
31330;PMS5003;34067;39.548;-76.088;2023-09-19T07:23:59;10;9;
31330;PMS5003;34067;39.548;-76.088;2023-09-19T07:26:27;9;8;
31330;PMS5003;34067;39.548;-76.088;2023-09-19T07:28:55;7;7;
31330;PMS5003;34067;39.548;-76.088;2023-09-19T07:31:23;8;7;
31330;PMS5003;34067;39.548;-76.088;2023-09-19T07:33:51;8;8;
31330;PMS5003;34067;39.548;-76.088;2023-09-19T07:36:19;8;7;
31330;PMS5003;34067;39.548;-76.088;2023-09-19T07:38:47;8;7;
31330;PMS5003;34067;39.548;-76.088;2023-09-19T07:41:15;9;9;
31330;PMS5003;34067;39.548;-76.088;2023-09-19T07:43:43;7;7;
31330;PMS5003;34067;39.548;-76.088;2023-09-19T07:46:11;7;7;
31330;PMS5003;34067;39.548;-76.088;2023-09-19T07:48:40;10;9;
31330;PMS5003;34067;39.548;-76.088;2023-09-19T07:51:08;9;8;
31330;PMS5003;34067;39.548;-76.088;2023-09-19T07:53:35;9;8;
31330;PMS5003;34067;39.548;-76.088;2023-09-19T07:56:04;8;8;
31330;PMS5003;34067;39.548;-76.088;2023-09-19T07:58:33;8;8;
31330;PMS5003;34067;39.548;-76.088;2023-09-19T08:01:03;9;9;
31330;PMS5003;34067;39.548;-76.088;2023-09-19T08:03:31;6;6;
31330;PMS5003;34067;39.548;-76.088;2023-09-19T08:05:59;9;7;
31330;PMS5003;34067;39.548;-76.088;2023-09-19T08:08:28;7;7;
31330;PMS5003;34067;39.548;-76.088;2023-09-19T08:10:56;9;7;
31330;PMS5003;34067;39.548;-76.088;2023-09-19T08:13:24;6;6;
31330;PMS5003;34067;39.548;-76.088;2023-09-19T08:15:52;9;9;
31330;PMS5003;34067;39.548;-76.088;2023-09-19T08:18:20;8;6;
31330;PMS5003;34067;39.548;-76.088;2023-09-19T08:20:50;9;9;
31330;PMS5003;34067;39.548;-76.088;2023-09-19T08:23:18;6;6;
31330;PMS5003;34067;39.548;-76.088;2023-09-19T08:25:46;7;7;
31330;PMS5003;34067;39.548;-76.088;2023-09-19T08:28:14;7;7;
31330;PMS5003;34067;39.548;-76.088;2023-09-19T08:30:42;7;7;
31330;PMS5003;34067;39.548;-76.088;2023-09-19T08:33:10;7;7;
31330;PMS5003;34067;39.548;-76.088;2023-09-19T08:35:38;9;8;
31330;PMS5003;34067;39.548;-76.088;2023-09-19T08:38:06;8;8;
31330;PMS5003;34067;39.548;-76.088;2023-09-19T08:40:36;7;7;
31330;PMS5003;34067;39.548;-76.088;2023-09-19T08:43:05;10;8;
31330;PMS5003;34067;39.548;-76.088;2023-09-19T08:45:33;7;7;
31330;PMS5003;34067;39.548;-76.088;2023-09-19T08:48:03;8;7;
31330;PMS5003;34067;39.548;-76.088;2023-09-19T08:50:45;8;7;
31330;PMS5003;34067;39.548;-76.088;2023-09-19T08:53:21;8;8;
31330;PMS5003;34067;39.548;-76.088;2023-09-19T08:55:53;7;7;
31330;PMS5003;34067;39.548;-76.088;2023-09-19T08:58:21;7;7;
31330;PMS5003;34067;39.548;-76.088;2023-09-19T09:00:52;9;8;
31330;PMS5003;34067;39.548;-76.088;2023-09-19T09:03:21;9;6;
31330;PMS5003;34067;39.548;-76.088;2023-09-19T09:05:50;7;7;
31330;PMS5003;34067;39.548;-76.088;2023-09-19T09:08:19;7;7;
31330;PMS5003;34067;39.548;-76.088;2023-09-19T09:10:47;8;7;
31330;PMS5003;34067;39.548;-76.088;2023-09-19T09:13:16;7;6;
31330;PMS5003;34067;39.548;-76.088;2023-09-19T09:15:44;7;6;
31330;PMS5003;34067;39.548;-76.088;2023-09-19T09:18:12;8;7;
31330;PMS5003;34067;39.548;-76.088;2023-09-19T09:20:40;8;8;
31330;PMS5003;34067;39.548;-76.088;2023-09-19T09:23:08;9;8;
31330;PMS5003;34067;39.548;-76.088;2023-09-19T09:25:53;8;8;
31330;PMS5003;34067;39.548;-76.088;2023-09-19T09:28:22;8;8;
31330;PMS5003;34067;39.548;-76.088;2023-09-19T09:30:51;7;6;
31330;PMS5003;34067;39.548;-76.088;2023-09-19T09:33:19;7;7;
31330;PMS5003;34067;39.548;-76.088;2023-09-19T09:35:51;7;7;
31330;PMS5003;34067;39.548;-76.088;2023-09-19T09:38:20;8;7;
31330;PMS5003;34067;39.548;-76.088;2023-09-19T09:40:49;8;7;
31330;PMS5003;34067;39.548;-76.088;2023-09-19T09:43:34;8;7;
31330;PMS5003;34067;39.548;-76.088;2023-09-19T09:46:07;7;6;
31330;PMS5003;34067;39.548;-76.088;2023-09-19T09:48:36;9;8;
31330;PMS5003;34067;39.548;-76.088;2023-09-19T09:51:04;8;8;
31330;PMS5003;34067;39.548;-76.088;2023-09-19T09:53:32;9;8;
31330;PMS5003;34067;39.548;-76.088;2023-09-19T09:56:01;8;7;
31330;PMS5003;34067;39.548;-76.088;2023-09-19T09:58:30;8;7;
31330;PMS5003;34067;39.548;-76.088;2023-09-19T10:00:58;7;7;
31330;PMS5003;34067;39.548;-76.088;2023-09-19T10:03:35;8;7;
31330;PMS5003;34067;39.548;-76.088;2023-09-19T10:06:04;7;7;
31330;PMS5003;34067;39.548;-76.088;2023-09-19T10:08:34;7;6;
31330;PMS5003;34067;39.548;-76.088;2023-09-19T10:11:13;6;6;
31330;PMS5003;34067;39.548;-76.088;2023-09-19T10:13:43;10;10;
31330;PMS5003;34067;39.548;-76.088;2023-09-19T10:16:13;8;7;
31330;PMS5003;34067;39.548;-76.088;2023-09-19T10:18:42;7;7;
31330;PMS5003;34067;39.548;-76.088;2023-09-19T10:21:12;7;7;
31330;PMS5003;34067;39.548;-76.088;2023-09-19T10:23:40;9;9;
31330;PMS5003;34067;39.548;-76.088;2023-09-19T10:26:09;8;7;
31330;PMS5003;34067;39.548;-76.088;2023-09-19T10:28:37;12;12;
31330;PMS5003;34067;39.548;-76.088;2023-09-19T10:31:05;8;7;
31330;PMS5003;34067;39.548;-76.088;2023-09-19T10:33:34;8;7;
31330;PMS5003;34067;39.548;-76.088;2023-09-19T10:36:04;5;5;
31330;PMS5003;34067;39.548;-76.088;2023-09-19T10:38:32;10;10;
31330;PMS5003;34067;39.548;-76.088;2023-09-19T10:41:02;9;8;
31330;PMS5003;34067;39.548;-76.088;2023-09-19T10:43:32;7;7;
31330;PMS5003;34067;39.548;-76.088;2023-09-19T10:46:01;8;8;
31330;PMS5003;34067;39.548;-76.088;2023-09-19T10:48:30;6;6;
31330;PMS5003;34067;39.548;-76.088;2023-09-19T10:51:01;9;8;
31330;PMS5003;34067;39.548;-76.088;2023-09-19T10:53:39;8;7;
31330;PMS5003;34067;39.548;-76.088;2023-09-19T10:56:11;9;8;
31330;PMS5003;34067;39.548;-76.088;2023-09-19T10:58:46;9;8;
31330;PMS5003;34067;39.548;-76.088;2023-09-19T11:01:14;8;7;
31330;PMS5003;34067;39.548;-76.088;2023-09-19T11:03:44;6;6;
31330;PMS5003;34067;39.548;-76.088;2023-09-19T11:06:12;7;7;
31330;PMS5003;34067;39.548;-76.088;2023-09-19T11:08:57;6;6;
31330;PMS5003;34067;39.548;-76.088;2023-09-19T11:11:42;8;7;
31330;PMS5003;34067;39.548;-76.088;2023-09-19T11:14:14;8;7;
31330;PMS5003;34067;39.548;-76.088;2023-09-19T11:17:30;11;9;
31330;PMS5003;34067;39.548;-76.088;2023-09-19T11:20:22;9;8;
31330;PMS5003;34067;39.548;-76.088;2023-09-19T11:23:23;9;8;
31330;PMS5003;34067;39.548;-76.088;2023-09-19T11:25:50;8;7;
31330;PMS5003;34067;39.548;-76.088;2023-09-19T11:28:31;6;5;
31330;PMS5003;34067;39.548;-76.088;2023-09-19T11:31:57;8;8;
31330;PMS5003;34067;39.548;-76.088;2023-09-19T11:35:02;7;7;
31330;PMS5003;34067;39.548;-76.088;2023-09-19T11:38:02;8;8;
31330;PMS5003;34067;39.548;-76.088;2023-09-19T11:40:29;7;7;
31330;PMS5003;34067;39.548;-76.088;2023-09-19T11:42:58;9;8;
31330;PMS5003;34067;39.548;-76.088;2023-09-19T11:46:24;9;9;
31330;PMS5003;34067;39.548;-76.088;2023-09-19T11:48:54;7;7;
31330;PMS5003;34067;39.548;-76.088;2023-09-19T11:51:22;8;8;
31330;PMS5003;34067;39.548;-76.088;2023-09-19T11:53:52;7;6;
31330;PMS5003;34067;39.548;-76.088;2023-09-19T11:56:21;8;8;
31330;PMS5003;34067;39.548;-76.088;2023-09-19T11:58:51;8;8;
31330;PMS5003;34067;39.548;-76.088;2023-09-19T12:01:21;8;7;
31330;PMS5003;34067;39.548;-76.088;2023-09-19T12:03:53;7;7;
31330;PMS5003;34067;39.548;-76.088;2023-09-19T12:06:21;9;8;
31330;PMS5003;34067;39.548;-76.088;2023-09-19T12:08:50;8;8;
31330;PMS5003;34067;39.548;-76.088;2023-09-19T12:11:18;8;8;
31330;PMS5003;34067;39.548;-76.088;2023-09-19T12:13:48;9;9;
31330;PMS5003;34067;39.548;-76.088;2023-09-19T12:16:17;9;9;
31330;PMS5003;34067;39.548;-76.088;2023-09-19T12:18:46;8;8;
31330;PMS5003;34067;39.548;-76.088;2023-09-19T12:21:22;8;8;
31330;PMS5003;34067;39.548;-76.088;2023-09-19T12:23:59;7;7;
31330;PMS5003;34067;39.548;-76.088;2023-09-19T12:26:39;10;10;
31330;PMS5003;34067;39.548;-76.088;2023-09-19T12:29:11;8;7;
31330;PMS5003;34067;39.548;-76.088;2023-09-19T12:31:47;8;8;
31330;PMS5003;34067;39.548;-76.088;2023-09-19T12:34:16;9;8;
31330;PMS5003;34067;39.548;-76.088;2023-09-19T12:36:46;7;6;
31330;PMS5003;34067;39.548;-76.088;2023-09-19T12:39:22;11;8;
31330;PMS5003;34067;39.548;-76.088;2023-09-19T12:41:51;10;9;
31330;PMS5003;34067;39.548;-76.088;2023-09-19T12:44:20;8;7;
31330;PMS5003;34067;39.548;-76.088;2023-09-19T12:46:48;9;9;
31330;PMS5003;34067;39.548;-76.088;2023-09-19T12:49:16;8;7;
31330;PMS5003;34067;39.548;-76.088;2023-09-19T12:51:46;7;7;
31330;PMS5003;34067;39.548;-76.088;2023-09-19T12:54:14;8;7;
31330;PMS5003;34067;39.548;-76.088;2023-09-19T12:56:43;7;7;
31330;PMS5003;34067;39.548;-76.088;2023-09-19T12:59:12;8;8;
31330;PMS5003;34067;39.548;-76.088;2023-09-19T13:01:40;6;6;
31330;PMS5003;34067;39.548;-76.088;2023-09-19T13:04:15;8;8;
31330;PMS5003;34067;39.548;-76.088;2023-09-19T13:06:44;7;6;
31330;PMS5003;34067;39.548;-76.088;2023-09-19T13:09:13;8;8;
31330;PMS5003;34067;39.548;-76.088;2023-09-19T13:11:41;7;6;
31330;PMS5003;34067;39.548;-76.088;2023-09-19T13:14:14;7;6;
31330;PMS5003;34067;39.548;-76.088;2023-09-19T13:17:01;7;7;
31330;PMS5003;34067;39.548;-76.088;2023-09-19T13:19:38;7;6;
31330;PMS5003;34067;39.548;-76.088;2023-09-19T13:22:40;8;8;
31330;PMS5003;34067;39.548;-76.088;2023-09-19T13:25:08;8;7;
31330;PMS5003;34067;39.548;-76.088;2023-09-19T13:27:37;12;12;
31330;PMS5003;34067;39.548;-76.088;2023-09-19T13:30:06;9;9;
31330;PMS5003;34067;39.548;-76.088;2023-09-19T13:32:34;8;7;
31330;PMS5003;34067;39.548;-76.088;2023-09-19T13:35:03;8;7;
31330;PMS5003;34067;39.548;-76.088;2023-09-19T13:37:32;7;7;
31330;PMS5003;34067;39.548;-76.088;2023-09-19T13:40:00;6;6;
31330;PMS5003;34067;39.548;-76.088;2023-09-19T13:42:28;9;9;
31330;PMS5003;34067;39.548;-76.088;2023-09-19T13:44:56;7;7;
31330;PMS5003;34067;39.548;-76.088;2023-09-19T13:47:24;8;8;
31330;PMS5003;34067;39.548;-76.088;2023-09-19T13:49:51;12;11;
31330;PMS5003;34067;39.548;-76.088;2023-09-19T13:52:20;7;7;
31330;PMS5003;34067;39.548;-76.088;2023-09-19T13:54:49;6;6;
31330;PMS5003;34067;39.548;-76.088;2023-09-19T13:57:17;7;7;
31330;PMS5003;34067;39.548;-76.088;2023-09-19T13:59:45;9;6;
31330;PMS5003;34067;39.548;-76.088;2023-09-19T14:02:13;7;7;
31330;PMS5003;34067;39.548;-76.088;2023-09-19T14:04:41;7;7;
31330;PMS5003;34067;39.548;-76.088;2023-09-19T14:07:09;7;5;
31330;PMS5003;34067;39.548;-76.088;2023-09-19T14:09:37;6;6;
31330;PMS5003;34067;39.548;-76.088;2023-09-19T14:12:05;7;7;
31330;PMS5003;34067;39.548;-76.088;2023-09-19T14:14:33;10;7;
31330;PMS5003;34067;39.548;-76.088;2023-09-19T14:17:01;9;8;
31330;PMS5003;34067;39.548;-76.088;2023-09-19T14:19:29;9;7;
31330;PMS5003;34067;39.548;-76.088;2023-09-19T14:21:57;8;8;
31330;PMS5003;34067;39.548;-76.088;2023-09-19T14:24:25;8;7;
31330;PMS5003;34067;39.548;-76.088;2023-09-19T14:26:53;7;6;
31330;PMS5003;34067;39.548;-76.088;2023-09-19T14:29:21;7;6;
31330;PMS5003;34067;39.548;-76.088;2023-09-19T14:31:49;9;8;
31330;PMS5003;34067;39.548;-76.088;2023-09-19T14:34:17;7;6;
31330;PMS5003;34067;39.548;-76.088;2023-09-19T14:36:45;8;8;
31330;PMS5003;34067;39.548;-76.088;2023-09-19T14:39:13;8;8;
31330;PMS5003;34067;39.548;-76.088;2023-09-19T14:41:41;8;7;
31330;PMS5003;34067;39.548;-76.088;2023-09-19T14:44:08;7;6;
31330;PMS5003;34067;39.548;-76.088;2023-09-19T14:46:36;7;7;
31330;PMS5003;34067;39.548;-76.088;2023-09-19T14:49:05;8;7;
31330;PMS5003;34067;39.548;-76.088;2023-09-19T14:51:33;6;5;
31330;PMS5003;34067;39.548;-76.088;2023-09-19T14:54:01;7;6;
31330;PMS5003;34067;39.548;-76.088;2023-09-19T14:56:29;8;8;
31330;PMS5003;34067;39.548;-76.088;2023-09-19T14:58:58;8;8;
31330;PMS5003;34067;39.548;-76.088;2023-09-19T15:01:25;6;5;
31330;PMS5003;34067;39.548;-76.088;2023-09-19T15:03:53;8;8;
31330;PMS5003;34067;39.548;-76.088;2023-09-19T15:06:21;9;9;
31330;PMS5003;34067;39.548;-76.088;2023-09-19T15:08:49;9;7;
31330;PMS5003;34067;39.548;-76.088;2023-09-19T15:11:17;6;6;
31330;PMS5003;34067;39.548;-76.088;2023-09-19T15:13:45;7;7;
31330;PMS5003;34067;39.548;-76.088;2023-09-19T15:16:13;10;10;
31330;PMS5003;34067;39.548;-76.088;2023-09-19T15:18:42;9;8;
31330;PMS5003;34067;39.548;-76.088;2023-09-19T15:21:11;8;7;
31330;PMS5003;34067;39.548;-76.088;2023-09-19T15:23:41;6;6;
31330;PMS5003;34067;39.548;-76.088;2023-09-19T15:26:10;7;7;
31330;PMS5003;34067;39.548;-76.088;2023-09-19T15:28:39;6;6;
31330;PMS5003;34067;39.548;-76.088;2023-09-19T15:31:07;8;8;
31330;PMS5003;34067;39.548;-76.088;2023-09-19T15:33:37;6;6;
31330;PMS5003;34067;39.548;-76.088;2023-09-19T15:36:06;7;7;
31330;PMS5003;34067;39.548;-76.088;2023-09-19T15:38:56;7;6;
31330;PMS5003;34067;39.548;-76.088;2023-09-19T15:41:25;10;8;
31330;PMS5003;34067;39.548;-76.088;2023-09-19T15:43:55;7;7;
31330;PMS5003;34067;39.548;-76.088;2023-09-19T15:46:24;7;6;
31330;PMS5003;34067;39.548;-76.088;2023-09-19T15:48:51;8;8;
31330;PMS5003;34067;39.548;-76.088;2023-09-19T15:51:19;5;5;
31330;PMS5003;34067;39.548;-76.088;2023-09-19T15:53:48;8;7;
31330;PMS5003;34067;39.548;-76.088;2023-09-19T15:56:17;6;6;
31330;PMS5003;34067;39.548;-76.088;2023-09-19T15:58:46;7;7;
31330;PMS5003;34067;39.548;-76.088;2023-09-19T16:01:15;6;6;
31330;PMS5003;34067;39.548;-76.088;2023-09-19T16:03:45;7;7;
31330;PMS5003;34067;39.548;-76.088;2023-09-19T16:06:15;7;7;
31330;PMS5003;34067;39.548;-76.088;2023-09-19T16:08:45;7;6;
31330;PMS5003;34067;39.548;-76.088;2023-09-19T16:11:15;7;6;
31330;PMS5003;34067;39.548;-76.088;2023-09-19T16:13:44;8;7;
31330;PMS5003;34067;39.548;-76.088;2023-09-19T16:16:14;5;5;
31330;PMS5003;34067;39.548;-76.088;2023-09-19T16:18:45;6;6;
31330;PMS5003;34067;39.548;-76.088;2023-09-19T16:21:13;8;5;
31330;PMS5003;34067;39.548;-76.088;2023-09-19T16:23:44;6;6;
31330;PMS5003;34067;39.548;-76.088;2023-09-19T16:26:12;4;4;
31330;PMS5003;34067;39.548;-76.088;2023-09-19T16:28:40;5;4;